sensor_id;sensor_type;location;lat;lon;timestamp;pressure;altitude;pressure_sealevel;temperature;humidity
38852;BME280;24605;50.092;9.182;2023-11-19T00:01:04;153824.59;;;7.00;100.00
38852;BME280;24605;50.092;9.182;2023-11-19T00:03:31;153833.69;;;7.03;100.00
38852;BME280;24605;50.092;9.182;2023-11-19T00:06:00;153825.88;;;7.00;100.00
38852;BME280;24605;50.092;9.182;2023-11-19T00:08:27;153838.84;;;7.05;100.00
38852;BME280;24605;50.092;9.182;2023-11-19T00:10:54;153849.25;;;7.10;100.00
38852;BME280;24605;50.092;9.182;2023-11-19T00:13:20;153846.66;;;7.09;100.00
38852;BME280;24605;50.092;9.182;2023-11-19T00:15:48;153776.44;;;6.81;100.00
38852;BME280;24605;50.092;9.182;2023-11-19T00:18:14;153862.25;;;7.15;100.00
38852;BME280;24605;50.092;9.182;2023-11-19T00:20:41;153866.19;;;7.16;100.00
38852;BME280;24605;50.092;9.182;2023-11-19T00:23:11;153873.94;;;7.19;100.00
38852;BME280;24605;50.092;9.182;2023-11-19T00:25:37;153889.59;;;7.26;100.00
38852;BME280;24605;50.092;9.182;2023-11-19T00:28:05;153903.91;;;7.31;100.00
38852;BME280;24605;50.092;9.182;2023-11-19T00:30:31;153877.88;;;7.21;100.00
38852;BME280;24605;50.092;9.182;2023-11-19T00:32:58;153864.84;;;7.16;100.00
38852;BME280;24605;50.092;9.182;2023-11-19T00:35:24;153870.06;;;7.18;100.00
38852;BME280;24605;50.092;9.182;2023-11-19T00:37:50;153867.47;;;7.17;100.00
38852;BME280;24605;50.092;9.182;2023-11-19T00:40:20;153875.28;;;7.20;100.00
38852;BME280;24605;50.092;9.182;2023-11-19T00:42:48;153889.59;;;7.26;100.00
38852;BME280;24605;50.092;9.182;2023-11-19T00:45:15;153901.28;;;7.30;100.00
38852;BME280;24605;50.092;9.182;2023-11-19T00:47:41;153896.09;;;7.28;100.00
38852;BME280;24605;50.092;9.182;2023-11-19T00:50:08;153851.88;;;7.11;100.00
38852;BME280;24605;50.092;9.182;2023-11-19T00:52:35;153896.09;;;7.28;100.00
38852;BME280;24605;50.092;9.182;2023-11-19T00:55:02;153915.59;;;7.36;100.00
38852;BME280;24605;50.092;9.182;2023-11-19T00:57:30;153909.06;;;7.33;100.00
38852;BME280;24605;50.092;9.182;2023-11-19T00:59:58;153884.38;;;7.24;100.00
38852;BME280;24605;50.092;9.182;2023-11-19T01:02:25;153859.69;;;7.14;100.00
38852;BME280;24605;50.092;9.182;2023-11-19T01:04:51;153898.69;;;7.29;100.00
38852;BME280;24605;50.092;9.182;2023-11-19T01:07:18;153940.28;;;7.46;100.00
38852;BME280;24605;50.092;9.182;2023-11-19T01:09:44;153935.09;;;7.44;100.00
38852;BME280;24605;50.092;9.182;2023-11-19T01:12:11;153901.28;;;7.30;100.00
38852;BME280;24605;50.092;9.182;2023-11-19T01:14:39;153922.09;;;7.39;100.00
38852;BME280;24605;50.092;9.182;2023-11-19T01:17:06;153948.13;;;7.49;100.00
38852;BME280;24605;50.092;9.182;2023-11-19T01:19:32;153948.13;;;7.49;100.00
38852;BME280;24605;50.092;9.182;2023-11-19T01:21:59;153958.50;;;7.53;100.00
38852;BME280;24605;50.092;9.182;2023-11-19T01:24:25;153927.25;;;7.41;100.00
38852;BME280;24605;50.092;9.182;2023-11-19T01:26:54;153946.78;;;7.48;100.00
38852;BME280;24605;50.092;9.182;2023-11-19T01:29:20;153967.59;;;7.57;100.00
38852;BME280;24605;50.092;9.182;2023-11-19T01:31:48;153989.72;;;7.65;100.00
38852;BME280;24605;50.092;9.182;2023-11-19T01:34:16;153959.81;;;7.53;100.00
38852;BME280;24605;50.092;9.182;2023-11-19T01:36:43;153980.63;;;7.62;100.00
38852;BME280;24605;50.092;9.182;2023-11-19T01:39:09;153984.53;;;7.63;100.00
38852;BME280;24605;50.092;9.182;2023-11-19T01:41:36;153975.41;;;7.60;100.00
38852;BME280;24605;50.092;9.182;2023-11-19T01:44:05;153958.50;;;7.53;100.00
38852;BME280;24605;50.092;9.182;2023-11-19T01:46:32;154010.53;;;7.74;100.00
38852;BME280;24605;50.092;9.182;2023-11-19T01:49:00;154007.94;;;7.73;100.00
38852;BME280;24605;50.092;9.182;2023-11-19T01:51:28;154007.94;;;7.73;100.00
38852;BME280;24605;50.092;9.182;2023-11-19T01:53:55;154044.34;;;7.87;100.00
38852;BME280;24605;50.092;9.182;2023-11-19T01:56:23;153987.13;;;7.64;100.00
38852;BME280;24605;50.092;9.182;2023-11-19T01:58:50;154002.72;;;7.71;100.00
38852;BME280;24605;50.092;9.182;2023-11-19T02:01:16;153996.22;;;7.68;100.00
38852;BME280;24605;50.092;9.182;2023-11-19T02:03:43;154013.16;;;7.75;100.00
38852;BME280;24605;50.092;9.182;2023-11-19T02:06:11;154028.75;;;7.81;100.00
38852;BME280;24605;50.092;9.182;2023-11-19T02:08:37;154035.25;;;7.83;100.00
38852;BME280;24605;50.092;9.182;2023-11-19T02:11:05;154060.00;;;7.93;100.00
38852;BME280;24605;50.092;9.182;2023-11-19T02:13:33;154063.88;;;7.95;100.00
38852;BME280;24605;50.092;9.182;2023-11-19T02:16:01;154063.88;;;7.95;100.00
38852;BME280;24605;50.092;9.182;2023-11-19T02:18:28;154082.09;;;8.02;100.00
38852;BME280;24605;50.092;9.182;2023-11-19T02:20:55;154048.28;;;7.89;100.00
38852;BME280;24605;50.092;9.182;2023-11-19T02:23:25;154074.25;;;7.99;100.00
38852;BME280;24605;50.092;9.182;2023-11-19T02:26:00;154075.59;;;7.99;100.00
38852;BME280;24605;50.092;9.182;2023-11-19T02:28:29;154075.59;;;7.99;100.00
38852;BME280;24605;50.092;9.182;2023-11-19T02:30:55;154089.91;;;8.05;100.00
38852;BME280;24605;50.092;9.182;2023-11-19T02:33:22;154040.47;;;7.86;100.00
38852;BME280;24605;50.092;9.182;2023-11-19T02:35:50;154076.88;;;8.00;100.00
38852;BME280;24605;50.092;9.182;2023-11-19T02:38:17;154104.22;;;8.11;100.00
38852;BME280;24605;50.092;9.182;2023-11-19T02:40:43;154085.97;;;8.04;100.00
38852;BME280;24605;50.092;9.182;2023-11-19T02:43:10;154109.38;;;8.13;100.00
38852;BME280;24605;50.092;9.182;2023-11-19T02:45:38;154113.31;;;8.14;100.00
38852;BME280;24605;50.092;9.182;2023-11-19T02:48:05;154130.22;;;8.21;100.00
38852;BME280;24605;50.092;9.182;2023-11-19T02:50:32;154119.81;;;8.17;100.00
38852;BME280;24605;50.092;9.182;2023-11-19T02:52:59;154143.25;;;8.26;100.00
38852;BME280;24605;50.092;9.182;2023-11-19T02:55:26;154143.25;;;8.26;100.00
38852;BME280;24605;50.092;9.182;2023-11-19T02:57:55;154123.72;;;8.19;100.00
38852;BME280;24605;50.092;9.182;2023-11-19T03:00:24;154115.88;;;8.15;100.00
38852;BME280;24605;50.092;9.182;2023-11-19T03:02:59;154109.38;;;8.13;100.00
38852;BME280;24605;50.092;9.182;2023-11-19T03:05:30;154123.72;;;8.19;100.00
38852;BME280;24605;50.092;9.182;2023-11-19T03:07:57;154152.34;;;8.30;100.00
38852;BME280;24605;50.092;9.182;2023-11-19T03:10:23;154091.19;;;8.06;100.00
38852;BME280;24605;50.092;9.182;2023-11-19T03:12:50;154160.13;;;8.33;100.00
38852;BME280;24605;50.092;9.182;2023-11-19T03:15:16;154164.06;;;8.35;100.00
38852;BME280;24605;50.092;9.182;2023-11-19T03:17:42;154177.06;;;8.40;100.00
38852;BME280;24605;50.092;9.182;2023-11-19T03:20:11;154204.44;;;8.51;100.00
38852;BME280;24605;50.092;9.182;2023-11-19T03:22:40;154209.66;;;8.53;100.00
38852;BME280;24605;50.092;9.182;2023-11-19T03:25:08;154177.06;;;8.40;100.00
38852;BME280;24605;50.092;9.182;2023-11-19T03:27:34;154183.56;;;8.42;100.00
38852;BME280;24605;50.092;9.182;2023-11-19T03:30:01;154187.50;;;8.44;100.00
38852;BME280;24605;50.092;9.182;2023-11-19T03:32:30;154191.38;;;8.45;100.00
38852;BME280;24605;50.092;9.182;2023-11-19T03:34:56;154191.38;;;8.45;100.00
38852;BME280;24605;50.092;9.182;2023-11-19T03:37:24;154213.59;;;8.54;100.00
38852;BME280;24605;50.092;9.182;2023-11-19T03:39:51;154209.66;;;8.53;100.00
38852;BME280;24605;50.092;9.182;2023-11-19T03:42:19;154209.66;;;8.53;100.00
38852;BME280;24605;50.092;9.182;2023-11-19T03:44:45;154213.59;;;8.54;100.00
38852;BME280;24605;50.092;9.182;2023-11-19T03:47:12;154225.31;;;8.59;100.00
38852;BME280;24605;50.092;9.182;2023-11-19T03:49:39;154225.31;;;8.59;100.00
38852;BME280;24605;50.092;9.182;2023-11-19T03:52:06;154235.69;;;8.63;100.00
38852;BME280;24605;50.092;9.182;2023-11-19T03:54:36;154220.09;;;8.57;100.00
38852;BME280;24605;50.092;9.182;2023-11-19T03:57:03;154233.06;;;8.62;100.00
38852;BME280;24605;50.092;9.182;2023-11-19T03:59:30;154227.84;;;8.60;100.00
38852;BME280;24605;50.092;9.182;2023-11-19T04:01:56;154216.16;;;8.55;100.00
38852;BME280;24605;50.092;9.182;2023-11-19T04:04:25;154230.47;;;8.61;100.00
38852;BME280;24605;50.092;9.182;2023-11-19T04:06:52;154231.81;;;8.61;100.00
38852;BME280;24605;50.092;9.182;2023-11-19T04:09:17;154246.13;;;8.67;100.00
38852;BME280;24605;50.092;9.182;2023-11-19T04:11:45;154244.78;;;8.67;100.00
38852;BME280;24605;50.092;9.182;2023-11-19T04:14:12;154244.78;;;8.67;100.00
38852;BME280;24605;50.092;9.182;2023-11-19T04:16:40;154248.72;;;8.68;100.00
38852;BME280;24605;50.092;9.182;2023-11-19T04:19:06;154234.41;;;8.62;100.00
38852;BME280;24605;50.092;9.182;2023-11-19T04:21:33;154239.56;;;8.65;100.00
38852;BME280;24605;50.092;9.182;2023-11-19T04:23:59;154277.34;;;8.80;100.00
38852;BME280;24605;50.092;9.182;2023-11-19T04:26:26;154281.28;;;8.81;100.00
38852;BME280;24605;50.092;9.182;2023-11-19T04:28:53;154278.66;;;8.80;100.00
38852;BME280;24605;50.092;9.182;2023-11-19T04:31:20;154291.66;;;8.85;100.00
38852;BME280;24605;50.092;9.182;2023-11-19T04:33:46;154281.28;;;8.81;100.00
38852;BME280;24605;50.092;9.182;2023-11-19T04:36:13;154293.00;;;8.86;100.00
38852;BME280;24605;50.092;9.182;2023-11-19T04:38:41;154295.56;;;8.87;100.00
38852;BME280;24605;50.092;9.182;2023-11-19T04:41:08;154290.38;;;8.85;100.00
38852;BME280;24605;50.092;9.182;2023-11-19T04:43:35;154289.06;;;8.84;100.00
38852;BME280;24605;50.092;9.182;2023-11-19T04:46:05;154283.84;;;8.82;100.00
38852;BME280;24605;50.092;9.182;2023-11-19T04:48:31;154278.66;;;8.80;100.00
38852;BME280;24605;50.092;9.182;2023-11-19T04:50:57;154319.00;;;8.96;100.00
38852;BME280;24605;50.092;9.182;2023-11-19T04:53:24;154290.38;;;8.85;100.00
38852;BME280;24605;50.092;9.182;2023-11-19T04:55:50;154298.16;;;8.88;100.00
38852;BME280;24605;50.092;9.182;2023-11-19T04:58:17;154296.88;;;8.87;100.00
38852;BME280;24605;50.092;9.182;2023-11-19T05:00:44;154294.28;;;8.86;100.00
38852;BME280;24605;50.092;9.182;2023-11-19T05:03:12;154317.72;;;8.96;100.00
38852;BME280;24605;50.092;9.182;2023-11-19T05:05:38;154296.88;;;8.87;100.00
38852;BME280;24605;50.092;9.182;2023-11-19T05:08:05;154345.03;;;9.06;100.00
38852;BME280;24605;50.092;9.182;2023-11-19T05:10:31;154355.50;;;9.11;100.00
38852;BME280;24605;50.092;9.182;2023-11-19T05:12:57;154348.94;;;9.08;100.00
38852;BME280;24605;50.092;9.182;2023-11-19T05:15:24;154356.78;;;9.11;100.00
38852;BME280;24605;50.092;9.182;2023-11-19T05:17:51;154348.94;;;9.08;100.00
38852;BME280;24605;50.092;9.182;2023-11-19T05:20:19;154367.22;;;9.15;100.00
38852;BME280;24605;50.092;9.182;2023-11-19T05:22:45;154371.09;;;9.17;100.00
38852;BME280;24605;50.092;9.182;2023-11-19T05:25:12;154380.22;;;9.20;100.00
38852;BME280;24605;50.092;9.182;2023-11-19T05:27:38;154367.22;;;9.15;100.00
38852;BME280;24605;50.092;9.182;2023-11-19T05:30:06;154377.59;;;9.19;100.00
38852;BME280;24605;50.092;9.182;2023-11-19T05:32:33;154395.81;;;9.27;100.00
38852;BME280;24605;50.092;9.182;2023-11-19T05:35:00;154388.03;;;9.23;100.00
38852;BME280;24605;50.092;9.182;2023-11-19T05:37:28;154391.94;;;9.25;100.00
38852;BME280;24605;50.092;9.182;2023-11-19T05:39:54;154414.09;;;9.34;100.00
38852;BME280;24605;50.092;9.182;2023-11-19T05:42:21;154410.16;;;9.32;100.00
38852;BME280;24605;50.092;9.182;2023-11-19T05:44:48;154406.25;;;9.31;100.00
38852;BME280;24605;50.092;9.182;2023-11-19T05:47:15;154377.59;;;9.19;100.00
38852;BME280;24605;50.092;9.182;2023-11-19T05:49:41;154412.75;;;9.33;100.00
38852;BME280;24605;50.092;9.182;2023-11-19T05:52:09;154427.09;;;9.39;100.00
38852;BME280;24605;50.092;9.182;2023-11-19T05:54:37;154433.59;;;9.41;100.00
38852;BME280;24605;50.092;9.182;2023-11-19T05:57:04;154429.72;;;9.40;100.00
38852;BME280;24605;50.092;9.182;2023-11-19T05:59:31;154360.66;;;9.13;100.00
38852;BME280;24605;50.092;9.182;2023-11-19T06:01:58;154453.16;;;9.49;100.00
38852;BME280;24605;50.092;9.182;2023-11-19T06:04:25;154442.72;;;9.45;100.00
38852;BME280;24605;50.092;9.182;2023-11-19T06:06:51;154454.44;;;9.50;100.00
38852;BME280;24605;50.092;9.182;2023-11-19T06:09:17;154378.94;;;9.20;100.00
38852;BME280;24605;50.092;9.182;2023-11-19T06:11:45;154467.50;;;9.55;100.00
38852;BME280;24605;50.092;9.182;2023-11-19T06:14:11;154471.38;;;9.56;100.00
38852;BME280;24605;50.092;9.182;2023-11-19T06:16:38;154488.31;;;9.63;100.00
38852;BME280;24605;50.092;9.182;2023-11-19T06:19:06;154496.13;;;9.66;100.00
38852;BME280;24605;50.092;9.182;2023-11-19T06:21:33;154468.78;;;9.55;100.00
38852;BME280;24605;50.092;9.182;2023-11-19T06:24:01;154489.59;;;9.64;100.00
38852;BME280;24605;50.092;9.182;2023-11-19T06:26:27;154497.44;;;9.67;100.00
38852;BME280;24605;50.092;9.182;2023-11-19T06:28:55;154494.84;;;9.66;100.00
38852;BME280;24605;50.092;9.182;2023-11-19T06:31:22;154497.44;;;9.67;100.00
38852;BME280;24605;50.092;9.182;2023-11-19T06:33:48;154501.34;;;9.68;100.00
38852;BME280;24605;50.092;9.182;2023-11-19T06:36:15;154520.88;;;9.76;100.00
38852;BME280;24605;50.092;9.182;2023-11-19T06:38:43;154490.94;;;9.64;100.00
38852;BME280;24605;50.092;9.182;2023-11-19T06:47:08;154532.63;;;9.81;100.00
38852;BME280;24605;50.092;9.182;2023-11-19T06:49:35;154535.22;;;9.82;100.00
38852;BME280;24605;50.092;9.182;2023-11-19T06:52:01;154552.13;;;9.88;100.00
38852;BME280;24605;50.092;9.182;2023-11-19T06:54:28;154527.41;;;9.79;100.00
38852;BME280;24605;50.092;9.182;2023-11-19T06:56:54;154523.50;;;9.77;100.00
38852;BME280;24605;50.092;9.182;2023-11-19T06:59:22;154546.97;;;9.86;100.00
38852;BME280;24605;50.092;9.182;2023-11-19T07:01:48;154545.63;;;9.86;100.00
38852;BME280;24605;50.092;9.182;2023-11-19T07:04:16;154558.69;;;9.91;100.00
38852;BME280;24605;50.092;9.182;2023-11-19T07:06:42;154584.69;;;10.01;100.00
38852;BME280;24605;50.092;9.182;2023-11-19T07:09:09;154563.84;;;9.93;100.00
38852;BME280;24605;50.092;9.182;2023-11-19T07:11:36;154583.41;;;10.01;100.00
38852;BME280;24605;50.092;9.182;2023-11-19T07:14:04;154570.41;;;9.96;100.00
38852;BME280;24605;50.092;9.182;2023-11-19T07:16:31;154574.31;;;9.97;100.00
38852;BME280;24605;50.092;9.182;2023-11-19T07:18:58;154561.25;;;9.92;100.00
38852;BME280;24605;50.092;9.182;2023-11-19T07:21:26;154579.53;;;9.99;100.00
38852;BME280;24605;50.092;9.182;2023-11-19T07:23:54;154571.69;;;9.96;100.00
38852;BME280;24605;50.092;9.182;2023-11-19T07:26:20;154584.69;;;10.01;100.00
38852;BME280;24605;50.092;9.182;2023-11-19T07:28:47;154588.66;;;10.03;100.00
38852;BME280;24605;50.092;9.182;2023-11-19T07:31:13;154596.44;;;10.06;100.00
38852;BME280;24605;50.092;9.182;2023-11-19T07:33:40;154638.13;;;10.23;100.00
38852;BME280;24605;50.092;9.182;2023-11-19T07:36:08;154666.81;;;10.34;100.00
38852;BME280;24605;50.092;9.182;2023-11-19T07:38:36;154653.78;;;10.29;100.00
38852;BME280;24605;50.092;9.182;2023-11-19T07:41:04;154639.44;;;10.23;100.00
38852;BME280;24605;50.092;9.182;2023-11-19T07:43:30;154626.44;;;10.18;100.00
38852;BME280;24605;50.092;9.182;2023-11-19T07:45:57;154647.28;;;10.26;100.00
38852;BME280;24605;50.092;9.182;2023-11-19T07:48:24;154635.56;;;10.22;100.00
38852;BME280;24605;50.092;9.182;2023-11-19T07:50:52;154640.72;;;10.24;100.00
38852;BME280;24605;50.092;9.182;2023-11-19T07:53:18;154627.72;;;10.18;100.00
38852;BME280;24605;50.092;9.182;2023-11-19T07:55:46;154643.34;;;10.25;100.00
38852;BME280;24605;50.092;9.182;2023-11-19T07:58:13;154640.72;;;10.24;100.00
38852;BME280;24605;50.092;9.182;2023-11-19T08:00:39;154651.19;;;10.28;100.00
38852;BME280;24605;50.092;9.182;2023-11-19T08:03:06;154655.06;;;10.29;100.00
38852;BME280;24605;50.092;9.182;2023-11-19T08:05:33;154640.72;;;10.24;100.00
38852;BME280;24605;50.092;9.182;2023-11-19T08:08:00;154687.72;;;10.42;100.00
38852;BME280;24605;50.092;9.182;2023-11-19T08:10:27;154709.88;;;10.51;100.00
38852;BME280;24605;50.092;9.182;2023-11-19T08:12:55;154724.25;;;10.57;100.00
38852;BME280;24605;50.092;9.182;2023-11-19T08:15:21;154729.41;;;10.59;100.00
38852;BME280;24605;50.092;9.182;2023-11-19T08:17:48;154703.38;;;10.48;100.00
38852;BME280;24605;50.092;9.182;2023-11-19T08:20:14;154707.28;;;10.50;100.00
38852;BME280;24605;50.092;9.182;2023-11-19T08:22:41;154725.53;;;10.57;100.00
38852;BME280;24605;50.092;9.182;2023-11-19T08:25:08;154721.63;;;10.56;100.00
38852;BME280;24605;50.092;9.182;2023-11-19T08:27:34;154724.25;;;10.57;100.00
38852;BME280;24605;50.092;9.182;2023-11-19T08:30:03;154751.59;;;10.68;100.00
38852;BME280;24605;50.092;9.182;2023-11-19T08:32:31;154764.63;;;10.73;100.00
38852;BME280;24605;50.092;9.182;2023-11-19T08:34:57;154734.63;;;10.61;100.00
38852;BME280;24605;50.092;9.182;2023-11-19T08:37:24;154755.50;;;10.69;100.00
38852;BME280;24605;50.092;9.182;2023-11-19T08:39:51;154760.72;;;10.71;100.00
38852;BME280;24605;50.092;9.182;2023-11-19T08:42:17;154772.44;;;10.76;100.00
38852;BME280;24605;50.092;9.182;2023-11-19T08:44:43;154773.72;;;10.76;100.00
38852;BME280;24605;50.092;9.182;2023-11-19T08:47:17;154798.53;;;10.86;100.00
38852;BME280;24605;50.092;9.182;2023-11-19T08:49:44;154788.09;;;10.82;100.00
38852;BME280;24605;50.092;9.182;2023-11-19T08:52:10;154765.94;;;10.73;100.00
38852;BME280;24605;50.092;9.182;2023-11-19T08:54:37;154763.34;;;10.72;100.00
38852;BME280;24605;50.092;9.182;2023-11-19T08:57:04;154750.25;;;10.67;100.00
38852;BME280;24605;50.092;9.182;2023-11-19T08:59:32;154739.88;;;10.63;100.00
38852;BME280;24605;50.092;9.182;2023-11-19T09:01:59;154715.13;;;10.53;100.00
38852;BME280;24605;50.092;9.182;2023-11-19T09:04:27;154746.38;;;10.65;100.00
38852;BME280;24605;50.092;9.182;2023-11-19T09:06:53;154752.88;;;10.68;100.00
38852;BME280;24605;50.092;9.182;2023-11-19T09:09:20;154735.97;;;10.61;100.00
38852;BME280;24605;50.092;9.182;2023-11-19T09:11:47;154729.41;;;10.59;100.00
38852;BME280;24605;50.092;9.182;2023-11-19T09:14:13;154735.97;;;10.61;100.00
38852;BME280;24605;50.092;9.182;2023-11-19T09:16:40;154765.94;;;10.73;100.00
38852;BME280;24605;50.092;9.182;2023-11-19T09:19:07;154769.84;;;10.75;100.00
38852;BME280;24605;50.092;9.182;2023-11-19T09:21:35;154745.09;;;10.65;100.00
38852;BME280;24605;50.092;9.182;2023-11-19T09:24:04;154755.50;;;10.69;100.00
38852;BME280;24605;50.092;9.182;2023-11-19T09:26:32;154751.59;;;10.68;100.00
38852;BME280;24605;50.092;9.182;2023-11-19T09:28:58;154730.75;;;10.59;100.00
38852;BME280;24605;50.092;9.182;2023-11-19T09:31:25;154802.44;;;10.88;100.00
38852;BME280;24605;50.092;9.182;2023-11-19T09:33:51;154808.94;;;10.90;100.00
38852;BME280;24605;50.092;9.182;2023-11-19T09:36:18;154846.75;;;11.05;100.00
38852;BME280;24605;50.092;9.182;2023-11-19T09:38:45;154901.56;;;11.27;100.00
38852;BME280;24605;50.092;9.182;2023-11-19T09:41:12;154917.19;;;11.33;100.00
38852;BME280;24605;50.092;9.182;2023-11-19T09:43:39;154918.47;;;11.34;100.00
38852;BME280;24605;50.092;9.182;2023-11-19T09:46:07;154842.88;;;11.04;100.00
38852;BME280;24605;50.092;9.182;2023-11-19T09:48:37;154885.88;;;11.21;100.00
38852;BME280;24605;50.092;9.182;2023-11-19T09:51:06;154908.06;;;11.29;100.00
38852;BME280;24605;50.092;9.182;2023-11-19T09:53:33;154943.28;;;11.43;100.00
38852;BME280;24605;50.092;9.182;2023-11-19T09:56:02;154974.56;;;11.56;100.00
38852;BME280;24605;50.092;9.182;2023-11-19T09:58:29;154958.91;;;11.50;100.00
38852;BME280;24605;50.092;9.182;2023-11-19T10:00:56;155025.47;;;11.76;100.00
38852;BME280;24605;50.092;9.182;2023-11-19T10:03:25;155093.38;;;12.03;100.00
38852;BME280;24605;50.092;9.182;2023-11-19T10:05:53;155133.78;;;12.19;100.00
38852;BME280;24605;50.092;9.182;2023-11-19T10:08:21;155086.81;;;12.00;100.00
38852;BME280;24605;50.092;9.182;2023-11-19T10:10:47;155047.63;;;11.85;100.00
38852;BME280;24605;50.092;9.182;2023-11-19T10:13:15;155042.41;;;11.83;100.00
38852;BME280;24605;50.092;9.182;2023-11-19T10:15:43;155067.22;;;11.93;100.00
38852;BME280;24605;50.092;9.182;2023-11-19T10:18:10;155110.28;;;12.10;100.00
38852;BME280;24605;50.092;9.182;2023-11-19T10:20:37;155161.19;;;12.30;100.00
38852;BME280;24605;50.092;9.182;2023-11-19T10:23:04;155127.28;;;12.16;100.00
38852;BME280;24605;50.092;9.182;2023-11-19T10:25:30;155139.03;;;12.21;100.00
38852;BME280;24605;50.092;9.182;2023-11-19T10:27:59;155137.72;;;12.20;100.00
38852;BME280;24605;50.092;9.182;2023-11-19T10:30:27;155192.53;;;12.42;100.00
38852;BME280;24605;50.092;9.182;2023-11-19T10:33:05;155213.41;;;12.50;100.00
38852;BME280;24605;50.092;9.182;2023-11-19T10:35:32;155230.38;;;12.57;100.00
38852;BME280;24605;50.092;9.182;2023-11-19T10:38:00;155260.41;;;12.69;100.00
38852;BME280;24605;50.092;9.182;2023-11-19T10:40:39;155242.13;;;12.62;100.00
38852;BME280;24605;50.092;9.182;2023-11-19T10:43:06;155210.78;;;12.49;100.00
38852;BME280;24605;50.092;9.182;2023-11-19T10:45:35;155225.16;;;12.55;100.00
38852;BME280;24605;50.092;9.182;2023-11-19T10:48:03;155209.50;;;12.49;100.00
38852;BME280;24605;50.092;9.182;2023-11-19T10:50:32;155183.41;;;12.38;100.00
38852;BME280;24605;50.092;9.182;2023-11-19T10:52:59;155187.28;;;12.40;100.00
38852;BME280;24605;50.092;9.182;2023-11-19T10:55:27;155172.94;;;12.34;100.00
38852;BME280;24605;50.092;9.182;2023-11-19T10:57:58;155157.28;;;12.28;100.00
38852;BME280;24605;50.092;9.182;2023-11-19T11:00:26;155182.13;;;12.38;100.00
38852;BME280;24605;50.092;9.182;2023-11-19T11:02:57;155191.25;;;12.42;100.00
38852;BME280;24605;50.092;9.182;2023-11-19T11:05:26;155255.16;;;12.67;100.00
38852;BME280;24605;50.092;9.182;2023-11-19T11:07:55;155256.50;;;12.67;100.00
38852;BME280;24605;50.092;9.182;2023-11-19T11:10:23;155240.81;;;12.61;100.00
38852;BME280;24605;50.092;9.182;2023-11-19T11:12:52;155246.03;;;12.63;100.00
38852;BME280;24605;50.092;9.182;2023-11-19T11:15:24;155219.91;;;12.53;100.00
38852;BME280;24605;50.092;9.182;2023-11-19T11:17:56;155175.53;;;12.35;100.00
38852;BME280;24605;50.092;9.182;2023-11-19T11:20:25;155191.25;;;12.42;100.00
38852;BME280;24605;50.092;9.182;2023-11-19T11:23:04;155242.13;;;12.62;100.00
38852;BME280;24605;50.092;9.182;2023-11-19T11:25:40;155204.28;;;12.47;100.00
38852;BME280;24605;50.092;9.182;2023-11-19T11:28:20;155186.00;;;12.40;100.00
38852;BME280;24605;50.092;9.182;2023-11-19T11:30:59;155203.00;;;12.46;100.00
38852;BME280;24605;50.092;9.182;2023-11-19T11:33:40;155222.53;;;12.54;100.00
38852;BME280;24605;50.092;9.182;2023-11-19T11:36:13;155252.56;;;12.66;100.00
38852;BME280;24605;50.092;9.182;2023-11-19T11:38:48;155259.13;;;12.68;100.00
38852;BME280;24605;50.092;9.182;2023-11-19T11:41:16;155233.00;;;12.58;100.00
38852;BME280;24605;50.092;9.182;2023-11-19T11:43:44;155216.03;;;12.51;100.00
38852;BME280;24605;50.092;9.182;2023-11-19T11:49:13;155240.81;;;12.61;100.00
38852;BME280;24605;50.092;9.182;2023-11-19T11:52:03;155210.78;;;12.49;100.00
38852;BME280;24605;50.092;9.182;2023-11-19T11:54:30;155214.75;;;12.51;100.00
38852;BME280;24605;50.092;9.182;2023-11-19T11:57:07;155240.81;;;12.61;100.00
38852;BME280;24605;50.092;9.182;2023-11-19T11:59:45;155204.28;;;12.47;100.00
38852;BME280;24605;50.092;9.182;2023-11-19T12:02:13;155205.56;;;12.47;100.00
38852;BME280;24605;50.092;9.182;2023-11-19T12:04:46;155272.16;;;12.74;100.00
38852;BME280;24605;50.092;9.182;2023-11-19T12:07:16;155248.66;;;12.64;100.00
38852;BME280;24605;50.092;9.182;2023-11-19T12:09:47;155268.25;;;12.72;100.00
38852;BME280;24605;50.092;9.182;2023-11-19T12:12:19;155249.97;;;12.65;100.00
38852;BME280;24605;50.092;9.182;2023-11-19T12:15:05;155255.16;;;12.67;100.00
38852;BME280;24605;50.092;9.182;2023-11-19T12:17:47;155223.88;;;12.54;100.00
38852;BME280;24605;50.092;9.182;2023-11-19T12:20:21;155217.31;;;12.52;100.00
38852;BME280;24605;50.092;9.182;2023-11-19T12:22:48;155217.31;;;12.52;100.00
38852;BME280;24605;50.092;9.182;2023-11-19T12:25:17;155248.66;;;12.64;100.00
38852;BME280;24605;50.092;9.182;2023-11-19T12:27:45;155244.75;;;12.63;100.00
38852;BME280;24605;50.092;9.182;2023-11-19T12:30:12;155266.91;;;12.72;100.00
38852;BME280;24605;50.092;9.182;2023-11-19T12:32:45;155256.50;;;12.67;100.00
38852;BME280;24605;50.092;9.182;2023-11-19T12:35:12;155247.38;;;12.64;100.00
38852;BME280;24605;50.092;9.182;2023-11-19T12:37:45;155276.06;;;12.75;100.00
38852;BME280;24605;50.092;9.182;2023-11-19T12:40:14;155278.66;;;12.76;100.00
38852;BME280;24605;50.092;9.182;2023-11-19T12:42:41;155242.13;;;12.62;100.00
38852;BME280;24605;50.092;9.182;2023-11-19T12:45:08;155236.91;;;12.60;100.00
38852;BME280;24605;50.092;9.182;2023-11-19T12:47:37;155186.00;;;12.40;100.00
38852;BME280;24605;50.092;9.182;2023-11-19T12:50:05;155216.03;;;12.51;100.00
38852;BME280;24605;50.092;9.182;2023-11-19T12:52:33;155244.75;;;12.63;100.00
38852;BME280;24605;50.092;9.182;2023-11-19T12:55:01;155191.25;;;12.42;100.00
38852;BME280;24605;50.092;9.182;2023-11-19T12:57:39;155175.53;;;12.35;100.00